sensor_id;sensor_type;location;lat;lon;timestamp;P1;durP1;ratioP1;P2;durP2;ratioP2
35084;SDS011;21267;51.032;6.998;2022-08-02T20:20:07;3.38;;;2.92;;
35084;SDS011;21267;51.032;6.998;2022-08-02T20:22:34;4.78;;;2.80;;
35084;SDS011;21267;51.032;6.998;2022-08-02T20:25:21;5.20;;;3.15;;
35084;SDS011;21267;51.032;6.998;2022-08-02T20:27:54;7.70;;;3.25;;
35084;SDS011;21267;51.032;6.998;2022-08-02T20:30:20;8.17;;;3.30;;
35084;SDS011;21267;51.032;6.998;2022-08-02T20:32:50;6.38;;;3.05;;
35084;SDS011;21267;51.032;6.998;2022-08-02T20:35:27;7.88;;;2.92;;
35084;SDS011;21267;51.032;6.998;2022-08-02T20:37:54;7.50;;;3.67;;
35084;SDS011;21267;51.032;6.998;2022-08-02T20:40:28;7.28;;;3.25;;
35084;SDS011;21267;51.032;6.998;2022-08-02T20:42:56;4.82;;;4.22;;
35084;SDS011;21267;51.032;6.998;2022-08-02T20:45:22;6.57;;;3.60;;
35084;SDS011;21267;51.032;6.998;2022-08-02T20:47:52;7.90;;;3.85;;
35084;SDS011;21267;51.032;6.998;2022-08-02T20:50:23;5.18;;;3.47;;
35084;SDS011;21267;51.032;6.998;2022-08-02T20:53:09;4.60;;;3.50;;
35084;SDS011;21267;51.032;6.998;2022-08-02T20:55:51;3.90;;;3.50;;
35084;SDS011;21267;51.032;6.998;2022-08-02T20:58:19;5.15;;;3.80;;
35084;SDS011;21267;51.032;6.998;2022-08-02T21:00:52;3.55;;;3.22;;
35084;SDS011;21267;51.032;6.998;2022-08-02T21:03:21;3.58;;;2.20;;
35084;SDS011;21267;51.032;6.998;2022-08-02T21:05:48;6.05;;;3.00;;
35084;SDS011;21267;51.032;6.998;2022-08-02T21:08:21;4.00;;;3.22;;
35084;SDS011;21267;51.032;6.998;2022-08-02T21:10:49;5.38;;;2.80;;
35084;SDS011;21267;51.032;6.998;2022-08-02T21:13:18;3.88;;;2.40;;
35084;SDS011;21267;51.032;6.998;2022-08-02T21:16:09;6.63;;;3.53;;
35084;SDS011;21267;51.032;6.998;2022-08-02T21:18:43;6.53;;;3.25;;
35084;SDS011;21267;51.032;6.998;2022-08-02T21:21:09;5.50;;;3.20;;
35084;SDS011;21267;51.032;6.998;2022-08-02T21:23:39;6.07;;;3.20;;
35084;SDS011;21267;51.032;6.998;2022-08-02T21:26:19;4.65;;;3.25;;
35084;SDS011;21267;51.032;6.998;2022-08-02T21:28:56;4.97;;;3.33;;
35084;SDS011;21267;51.032;6.998;2022-08-02T21:31:23;5.13;;;2.80;;
35084;SDS011;21267;51.032;6.998;2022-08-02T21:33:57;6.03;;;3.42;;
35084;SDS011;21267;51.032;6.998;2022-08-02T21:36:26;5.03;;;3.05;;
35084;SDS011;21267;51.032;6.998;2022-08-02T21:38:57;4.32;;;3.13;;
35084;SDS011;21267;51.032;6.998;2022-08-02T21:41:37;5.57;;;3.53;;
35084;SDS011;21267;51.032;6.998;2022-08-02T21:44:13;6.28;;;3.42;;
35084;SDS011;21267;51.032;6.998;2022-08-02T21:46:44;6.70;;;3.63;;
35084;SDS011;21267;51.032;6.998;2022-08-02T21:49:12;4.38;;;3.35;;
35084;SDS011;21267;51.032;6.998;2022-08-02T21:51:40;6.38;;;3.72;;
35084;SDS011;21267;51.032;6.998;2022-08-02T21:54:08;4.65;;;3.13;;
35084;SDS011;21267;51.032;6.998;2022-08-02T21:56:45;4.23;;;3.83;;
35084;SDS011;21267;51.032;6.998;2022-08-02T21:59:13;7.78;;;4.40;;
35084;SDS011;21267;51.032;6.998;2022-08-02T22:01:42;5.60;;;3.95;;
35084;SDS011;21267;51.032;6.998;2022-08-02T22:04:18;6.32;;;4.50;;
35084;SDS011;21267;51.032;6.998;2022-08-02T22:06:45;6.88;;;4.05;;
35084;SDS011;21267;51.032;6.998;2022-08-02T22:09:15;6.40;;;4.95;;
35084;SDS011;21267;51.032;6.998;2022-08-02T22:12:03;6.65;;;4.78;;
35084;SDS011;21267;51.032;6.998;2022-08-02T22:14:42;10.82;;;7.68;;
35084;SDS011;21267;51.032;6.998;2022-08-02T22:20:06;7.10;;;5.38;;
35084;SDS011;21267;51.032;6.998;2022-08-02T22:25:00;6.67;;;4.43;;
35084;SDS011;21267;51.032;6.998;2022-08-02T22:27:29;6.88;;;4.05;;
35084;SDS011;21267;51.032;6.998;2022-08-02T22:30:15;6.78;;;4.18;;
35084;SDS011;21267;51.032;6.998;2022-08-02T22:32:43;6.20;;;3.60;;
35084;SDS011;21267;51.032;6.998;2022-08-02T22:35:49;4.80;;;4.00;;
35084;SDS011;21267;51.032;6.998;2022-08-02T22:38:16;5.32;;;4.40;;
35084;SDS011;21267;51.032;6.998;2022-08-02T22:40:45;5.25;;;3.95;;
35084;SDS011;21267;51.032;6.998;2022-08-02T22:43:12;5.53;;;4.30;;
35084;SDS011;21267;51.032;6.998;2022-08-02T22:45:48;5.00;;;4.50;;
35084;SDS011;21267;51.032;6.998;2022-08-02T22:48:15;8.15;;;4.43;;
35084;SDS011;21267;51.032;6.998;2022-08-02T22:50:42;6.65;;;4.63;;
35084;SDS011;21267;51.032;6.998;2022-08-02T22:53:08;5.07;;;3.60;;
35084;SDS011;21267;51.032;6.998;2022-08-02T22:55:37;5.47;;;4.25;;
35084;SDS011;21267;51.032;6.998;2022-08-02T22:58:07;4.18;;;3.70;;
35084;SDS011;21267;51.032;6.998;2022-08-02T23:00:34;4.85;;;4.22;;
35084;SDS011;21267;51.032;6.998;2022-08-02T23:03:01;4.03;;;3.63;;
35084;SDS011;21267;51.032;6.998;2022-08-02T23:05:31;5.18;;;3.47;;
35084;SDS011;21267;51.032;6.998;2022-08-02T23:07:58;5.83;;;4.37;;
35084;SDS011;21267;51.032;6.998;2022-08-02T23:10:25;4.07;;;3.67;;
35084;SDS011;21267;51.032;6.998;2022-08-02T23:12:52;6.13;;;4.30;;
35084;SDS011;21267;51.032;6.998;2022-08-02T23:15:21;4.82;;;3.53;;
35084;SDS011;21267;51.032;6.998;2022-08-02T23:17:48;5.13;;;4.30;;
35084;SDS011;21267;51.032;6.998;2022-08-02T23:20:33;7.38;;;4.80;;
35084;SDS011;21267;51.032;6.998;2022-08-02T23:23:00;5.27;;;3.87;;
35084;SDS011;21267;51.032;6.998;2022-08-02T23:25:26;6.43;;;4.07;;
35084;SDS011;21267;51.032;6.998;2022-08-02T23:27:53;6.32;;;4.30;;
35084;SDS011;21267;51.032;6.998;2022-08-02T23:30:20;5.80;;;3.92;;
35084;SDS011;21267;51.032;6.998;2022-08-02T23:32:46;4.90;;;4.20;;
35084;SDS011;21267;51.032;6.998;2022-08-02T23:35:19;4.05;;;3.70;;
35084;SDS011;21267;51.032;6.998;2022-08-02T23:37:46;6.57;;;3.90;;
35084;SDS011;21267;51.032;6.998;2022-08-02T23:40:26;5.80;;;3.60;;
35084;SDS011;21267;51.032;6.998;2022-08-02T23:43:09;4.88;;;3.95;;
35084;SDS011;21267;51.032;6.998;2022-08-02T23:45:39;3.55;;;3.10;;
35084;SDS011;21267;51.032;6.998;2022-08-02T23:48:06;5.28;;;3.35;;
35084;SDS011;21267;51.032;6.998;2022-08-02T23:50:33;4.60;;;3.53;;
35084;SDS011;21267;51.032;6.998;2022-08-02T23:52:59;10.55;;;3.95;;
35084;SDS011;21267;51.032;6.998;2022-08-02T23:55:26;6.00;;;3.03;;
35084;SDS011;21267;51.032;6.998;2022-08-02T23:57:53;3.65;;;3.35;;
